Weather at Mission Trail Baptist Hospital Helipad

Public forecast

Using degrees Fahrenheit for public forecast. Weather courtesy of forecast.io.

Closest aviation weather report (METAR) to Mission Trail Baptist Hospital Helipad

Closest report is Stinson Municipal Airport, 1.8 nm (3.4 km) WSW.

2024/05/29 11:53 (retrieved 54 minutes ago)

KSSF 291153Z 07007KT 10SM CLR 22/20 A3004 RMK AO2 SLP160 70010 T02220200 10239 20222 50010

Closest aviation forecast (TAF) to Mission Trail Baptist Hospital Helipad

Closest forecast is Stinson Municipal Airport, 1.8 nm (3.4 km) WSW.

2024/05/29 12:22 (retrieved 25 minutes ago)

TAF KSSF 291120Z 2912/3012 08010KT P6SM SCT025 FM291500 12009KT P6SM BKN050 FM292200 12012KT P6SM BKN150 FM300500 13010KT P6SM OVC015